Time;durP1;ratioP1;P1;durP2;ratioP2;P2;SDS_P1;SDS_P2;PMS_P1;PMS_P2;Temp;Humidity;BMP_temperature;BMP_pressure;BME280_temperature;BME280_humidity;BME280_pressure;Samples;Min_cycle;Max_cycle;Signal;HPM_P1;HPM_P2
2022/03/13 00:00:45;;;;;;;19.05;11.45;;;5.90;28.40;;;;;;4988543;28;20217;-78
2022/03/13 00:03:13;;;;;;;16.95;11.00;;;5.80;28.90;;;;;;4994646;28;20719;-78
2022/03/13 00:05:41;;;;;;;16.85;11.50;;;5.80;29.00;;;;;;5049280;28;20245;-78
2022/03/13 00:08:18;;;;;;;20.10;12.40;;;5.90;28.60;;;;;;5047118;28;20255;-77
2022/03/13 00:10:55;;;;;;;21.05;12.00;;;5.80;28.40;;;;;;5051164;28;20197;-77
2022/03/13 00:13:22;;;;;;;19.95;12.10;;;5.80;28.60;;;;;;5052620;28;20280;-76
2022/03/13 00:15:51;;;;;;;19.20;11.60;;;5.60;29.00;;;;;;5052076;28;20234;-76
2022/03/13 00:18:18;;;;;;;15.60;12.13;;;5.50;29.30;;;;;;5053176;28;20202;-77
2022/03/13 00:20:45;;;;;;;19.85;12.32;;;5.40;29.60;;;;;;5056151;28;20201;-78
2022/03/13 00:23:12;;;;;;;20.20;11.85;;;5.40;29.70;;;;;;5055048;28;20210;-77
2022/03/13 00:25:40;;;;;;;20.50;14.02;;;5.40;30.00;;;;;;5053463;28;20249;-77
2022/03/13 00:28:08;;;;;;;20.55;13.13;;;5.40;30.60;;;;;;5051322;28;20202;-76
2022/03/13 00:30:36;;;;;;;17.45;12.77;;;5.40;30.50;;;;;;5050003;28;20208;-78
2022/03/13 00:33:03;;;;;;;23.45;14.15;;;5.40;31.20;;;;;;5049969;28;20301;-77
2022/03/13 00:35:30;;;;;;;19.15;12.63;;;5.40;30.70;;;;;;5054979;28;20213;-78
2022/03/13 00:37:57;;;;;;;18.02;12.18;;;5.40;30.50;;;;;;5056030;28;20228;-76
2022/03/13 00:40:24;;;;;;;17.92;13.43;;;5.30;30.60;;;;;;5055743;28;20216;-76
2022/03/13 00:42:51;;;;;;;24.60;13.77;;;5.30;30.60;;;;;;5052420;28;20217;-76
2022/03/13 00:45:20;;;;;;;22.02;12.98;;;5.30;30.60;;;;;;5049127;28;20711;-77
2022/03/13 00:47:47;;;;;;;19.88;13.00;;;5.20;30.90;;;;;;5041070;28;20212;-77
2022/03/13 00:50:13;;;;;;;17.55;12.40;;;5.20;31.10;;;;;;5042578;28;20255;-77
2022/03/13 00:52:41;;;;;;;21.58;13.80;;;5.10;31.20;;;;;;5044059;28;20218;-77
2022/03/13 00:55:09;;;;;;;21.17;13.00;;;5.10;31.20;;;;;;5039959;28;20259;-76
2022/03/13 00:57:36;;;;;;;18.30;13.07;;;5.00;31.20;;;;;;5047408;28;20213;-77
2022/03/13 01:00:04;;;;;;;21.88;13.90;;;5.00;31.10;;;;;;5048349;28;20220;-77
2022/03/13 01:02:33;;;;;;;23.10;13.68;;;5.00;31.10;;;;;;5047897;28;20201;-77
2022/03/13 01:05:00;;;;;;;21.63;12.73;;;4.90;31.20;;;;;;5044313;28;20233;-77
2022/03/13 01:07:27;;;;;;;20.63;13.02;;;5.00;31.10;;;;;;5047541;28;20209;-77
2022/03/13 01:09:53;;;;;;;25.00;13.27;;;4.90;31.00;;;;;;5048856;28;20239;-77
2022/03/13 01:12:20;;;;;;;18.80;12.20;;;4.90;31.10;;;;;;5044772;28;20207;-76
2022/03/13 01:14:48;;;;;;;21.60;13.23;;;4.90;30.70;;;;;;5045140;28;20256;-76
2022/03/13 01:17:18;;;;;;;22.80;14.25;;;4.90;30.70;;;;;;5048137;28;20288;-76
2022/03/13 01:19:46;;;;;;;18.15;12.57;;;4.90;30.80;;;;;;5053063;28;20641;-76
2022/03/13 01:22:14;;;;;;;18.40;11.93;;;4.90;30.50;;;;;;5050094;28;20200;-78
2022/03/13 01:24:44;;;;;;;19.73;13.27;;;4.90;30.20;;;;;;5047444;28;20267;-77
2022/03/13 01:27:12;;;;;;;23.40;13.38;;;4.90;30.50;;;;;;5048581;28;20186;-76
2022/03/13 01:29:40;;;;;;;17.30;12.00;;;4.90;30.70;;;;;;5038253;28;20214;-77
2022/03/13 01:32:10;;;;;;;22.50;13.90;;;4.80;30.60;;;;;;5037083;28;20217;-77
2022/03/13 01:34:42;;;;;;;19.70;12.50;;;4.70;31.00;;;;;;5038175;28;20222;-77
2022/03/13 01:37:20;;;;;;;16.52;12.05;;;4.60;31.40;;;;;;5038577;28;20228;-77
2022/03/13 01:39:48;;;;;;;17.52;11.88;;;4.60;31.50;;;;;;5037583;28;20694;-76
2022/03/13 01:42:15;;;;;;;20.33;12.88;;;4.60;31.40;;;;;;5035293;28;20230;-77
2022/03/13 01:44:42;;;;;;;17.77;12.23;;;4.50;31.20;;;;;;5035154;28;20708;-77
2022/03/13 01:47:09;;;;;;;21.85;11.55;;;4.50;31.00;;;;;;5046570;28;20224;-76
2022/03/13 01:49:36;;;;;;;19.80;13.25;;;4.60;30.80;;;;;;5044623;28;20280;-75
2022/03/13 01:52:04;;;;;;;21.08;12.25;;;4.60;30.80;;;;;;5044472;28;20244;-77
2022/03/13 01:54:32;;;;;;;22.98;13.32;;;4.60;30.80;;;;;;5042432;28;20220;-77
2022/03/13 01:57:00;;;;;;;22.23;13.68;;;4.60;30.90;;;;;;5042545;28;20212;-77
2022/03/13 01:59:29;;;;;;;17.65;12.98;;;4.60;31.30;;;;;;5044659;28;20237;-77
2022/03/13 02:01:57;;;;;;;21.27;14.38;;;4.60;31.70;;;;;;5042220;28;20204;-77
2022/03/13 02:04:27;;;;;;;21.23;13.18;;;4.60;32.00;;;;;;5049104;28;20220;-77
2022/03/13 02:06:55;;;;;;;29.98;13.82;;;4.50;32.30;;;;;;5043267;28;20225;-77
2022/03/13 02:09:23;;;;;;;18.35;12.85;;;4.40;32.50;;;;;;5041383;28;20206;-77
2022/03/13 02:11:51;;;;;;;20.48;13.90;;;4.40;32.70;;;;;;5039256;28;20200;-76
2022/03/13 02:14:22;;;;;;;19.95;13.00;;;4.20;32.60;;;;;;5039300;28;20684;-77
2022/03/13 02:16:50;;;;;;;21.02;13.98;;;4.20;32.60;;;;;;5040328;28;20203;-77
2022/03/13 02:19:18;;;;;;;22.63;13.95;;;4.10;32.60;;;;;;5052699;28;20232;-78
2022/03/13 02:21:49;;;;;;;19.70;12.32;;;4.10;32.50;;;;;;5051492;28;20224;-77
2022/03/13 02:24:20;;;;;;;23.35;13.82;;;4.20;32.60;;;;;;5050590;28;20201;-76
2022/03/13 02:26:58;;;;;;;23.58;13.68;;;4.10;32.70;;;;;;5048461;28;20216;-77
2022/03/13 02:29:26;;;;;;;19.95;12.77;;;4.10;32.70;;;;;;5047272;28;20243;-77
2022/03/13 02:31:53;;;;;;;20.95;13.20;;;4.10;32.90;;;;;;5043518;28;20205;-77
2022/03/13 02:34:21;;;;;;;19.45;13.13;;;4.00;33.00;;;;;;5043441;28;20243;-77
2022/03/13 02:37:01;;;;;;;20.27;13.45;;;4.00;33.10;;;;;;5044659;28;20210;-77
2022/03/13 02:39:35;;;;;;;19.30;12.45;;;3.90;33.60;;;;;;5046955;28;20195;-78
2022/03/13 02:42:07;;;;;;;20.85;13.15;;;3.90;33.60;;;;;;5046611;28;20236;-77
2022/03/13 02:44:34;;;;;;;21.05;12.70;;;3.90;33.60;;;;;;5047502;28;20220;-76
2022/03/13 02:47:03;;;;;;;20.08;13.00;;;3.80;33.60;;;;;;5043808;28;20317;-78
2022/03/13 02:49:31;;;;;;;17.17;12.57;;;3.70;34.10;;;;;;5043619;28;20219;-77
2022/03/13 02:52:02;;;;;;;23.25;13.32;;;3.70;35.00;;;;;;5045219;28;20543;-77
2022/03/13 02:54:32;;;;;;;19.83;13.30;;;3.70;35.00;;;;;;5046010;28;20271;-75
2022/03/13 02:56:59;;;;;;;17.55;12.77;;;3.60;34.90;;;;;;5048631;28;20610;-78
2022/03/13 02:59:26;;;;;;;21.83;13.82;;;3.50;34.80;;;;;;5049363;28;20216;-78
2022/03/13 03:01:53;;;;;;;22.08;13.73;;;3.60;34.90;;;;;;5049459;28;20276;-77
2022/03/13 03:04:25;;;;;;;20.50;13.48;;;3.60;34.90;;;;;;5047434;28;20205;-77
2022/03/13 03:06:56;;;;;;;21.10;13.45;;;3.60;34.90;;;;;;5046762;28;20264;-77
2022/03/13 03:09:23;;;;;;;21.73;14.38;;;3.50;34.80;;;;;;5038959;28;20219;-77
2022/03/13 03:11:52;;;;;;;22.98;14.38;;;3.50;34.80;;;;;;5037731;28;20207;-76
2022/03/13 03:14:20;;;;;;;19.30;13.20;;;3.50;34.80;;;;;;5037580;28;20268;-76
2022/03/13 03:16:47;;;;;;;21.25;14.73;;;3.40;35.20;;;;;;5038571;28;20300;-77
2022/03/13 03:19:14;;;;;;;22.40;15.43;;;3.30;36.30;;;;;;5038344;28;20208;-77
2022/03/13 03:21:41;;;;;;;24.75;16.15;;;3.30;37.30;;;;;;5036918;28;20774;-78
2022/03/13 03:24:13;;;;;;;23.60;15.02;;;3.30;38.20;;;;;;5037181;28;20290;-78
2022/03/13 03:26:40;;;;;;;22.30;15.65;;;3.30;38.50;;;;;;5037907;28;20238;-77
2022/03/13 03:29:08;;;;;;;21.40;15.38;;;3.30;39.60;;;;;;5037600;28;20199;-76
2022/03/13 03:31:40;;;;;;;22.42;14.95;;;3.20;40.30;;;;;;5042884;28;20275;-78
2022/03/13 03:34:10;;;;;;;26.50;16.52;;;3.10;40.10;;;;;;5036946;28;20191;-77
2022/03/13 03:36:41;;;;;;;26.67;15.80;;;3.10;40.60;;;;;;5036484;28;20228;-78
2022/03/13 03:39:08;;;;;;;25.88;16.77;;;3.00;41.50;;;;;;5036229;28;20218;-76
2022/03/13 03:41:35;;;;;;;26.55;16.75;;;3.00;42.00;;;;;;5035421;28;20228;-77
2022/03/13 03:44:02;;;;;;;25.92;16.70;;;3.00;42.50;;;;;;5035334;28;20216;-77
2022/03/13 03:46:30;;;;;;;28.13;17.17;;;3.00;42.50;;;;;;5035783;28;20235;-77
2022/03/13 03:48:57;;;;;;;24.88;15.77;;;2.90;42.70;;;;;;5040528;28;20214;-76
2022/03/13 03:51:24;;;;;;;23.45;15.18;;;2.90;43.10;;;;;;5043902;28;20280;-77
2022/03/13 03:53:50;;;;;;;27.20;16.10;;;2.90;44.10;;;;;;5041017;28;20229;-78
2022/03/13 03:56:18;;;;;;;28.00;18.00;;;2.90;44.10;;;;;;5043302;28;20259;-77
2022/03/13 03:58:44;;;;;;;25.40;17.17;;;2.90;44.10;;;;;;5043663;28;20572;-77
2022/03/13 04:01:11;;;;;;;29.75;17.02;;;2.80;44.00;;;;;;5042358;28;20212;-77
2022/03/13 04:03:40;;;;;;;24.60;15.90;;;2.80;44.00;;;;;;5043765;28;20209;-78
2022/03/13 04:06:06;;;;;;;25.95;16.77;;;3.00;44.90;;;;;;5043773;28;20254;-77
2022/03/13 04:08:34;;;;;;;25.27;15.50;;;3.00;44.20;;;;;;5043085;28;20567;-77
2022/03/13 04:11:01;;;;;;;26.02;16.40;;;2.90;44.10;;;;;;5036119;28;20211;-77
2022/03/13 04:13:29;;;;;;;25.63;16.67;;;2.90;44.80;;;;;;5035760;28;20219;-78
2022/03/13 04:15:56;;;;;;;27.67;16.77;;;2.90;44.10;;;;;;5035410;28;20229;-76
2022/03/13 04:18:23;;;;;;;30.90;16.15;;;2.90;44.10;;;;;;5041552;28;20243;-78
2022/03/13 04:20:51;;;;;;;25.25;15.88;;;2.80;44.00;;;;;;5042458;28;20203;-76
2022/03/13 04:23:18;;;;;;;25.70;17.00;;;2.80;44.10;;;;;;5042290;28;20226;-77
2022/03/13 04:25:45;;;;;;;32.05;16.90;;;2.70;44.70;;;;;;5036142;28;20703;-78
2022/03/13 04:28:12;;;;;;;24.52;15.80;;;2.60;45.10;;;;;;5036175;28;20659;-78
2022/03/13 04:30:40;;;;;;;32.30;16.95;;;2.60;45.60;;;;;;5035811;28;20247;-78
2022/03/13 04:33:07;;;;;;;22.98;14.30;;;2.60;45.30;;;;;;5035779;28;20235;-79
2022/03/13 04:35:34;;;;;;;24.67;16.30;;;2.60;45.70;;;;;;5036440;28;20238;-76
2022/03/13 04:38:03;;;;;;;24.92;17.77;;;2.50;45.00;;;;;;5036027;28;20610;-77
2022/03/13 04:40:30;;;;;;;26.67;17.00;;;2.50;45.40;;;;;;5036125;28;20207;-77
2022/03/13 04:42:56;;;;;;;26.92;17.17;;;2.50;45.30;;;;;;5035994;28;20245;-77
2022/03/13 04:45:25;;;;;;;26.73;16.38;;;2.40;45.70;;;;;;5037129;28;20232;-78
2022/03/13 04:47:52;;;;;;;24.38;15.77;;;2.30;46.10;;;;;;5051001;28;20223;-76
2022/03/13 04:50:19;;;;;;;24.25;15.77;;;2.20;46.60;;;;;;5055848;28;20211;-76
2022/03/13 04:52:46;;;;;;;28.92;17.90;;;2.10;48.10;;;;;;5052705;28;20206;-76
2022/03/13 04:55:14;;;;;;;27.80;16.42;;;2.10;48.20;;;;;;5037437;28;20707;-77
2022/03/13 04:57:41;;;;;;;25.08;16.25;;;2.10;48.10;;;;;;5041257;28;20656;-77
2022/03/13 05:00:09;;;;;;;25.60;16.45;;;2.10;48.40;;;;;;5041506;28;20211;-77
2022/03/13 05:02:37;;;;;;;25.33;15.65;;;2.10;49.00;;;;;;5039689;28;20608;-77
2022/03/13 05:05:05;;;;;;;24.90;14.93;;;2.00;49.10;;;;;;5040287;28;20637;-77
2022/03/13 05:07:32;;;;;;;24.77;17.48;;;2.00;49.70;;;;;;5036889;28;20314;-77
2022/03/13 05:09:59;;;;;;;27.27;17.25;;;2.10;50.80;;;;;;5036541;28;20630;-77
2022/03/13 05:12:29;;;;;;;26.95;16.95;;;2.20;50.90;;;;;;5035778;28;20206;-77
2022/03/13 05:14:56;;;;;;;25.52;16.25;;;2.20;51.10;;;;;;5035476;28;20232;-76
2022/03/13 05:17:23;;;;;;;26.73;16.20;;;2.30;51.40;;;;;;5035698;28;20295;-78
2022/03/13 05:19:50;;;;;;;26.20;15.85;;;2.40;51.40;;;;;;5035241;28;20698;-77
2022/03/13 05:22:17;;;;;;;25.02;16.95;;;2.30;51.50;;;;;;5035263;28;20826;-77
2022/03/13 05:24:44;;;;;;;23.38;15.98;;;2.30;51.80;;;;;;5035074;28;20288;-78
2022/03/13 05:27:11;;;;;;;24.23;15.57;;;2.20;51.90;;;;;;5036119;28;20223;-78
2022/03/13 05:29:39;;;;;;;24.65;16.20;;;2.20;52.40;;;;;;5042264;28;20698;-77
2022/03/13 05:32:07;;;;;;;30.13;16.98;;;2.20;52.90;;;;;;5041568;28;20717;-76
2022/03/13 05:34:34;;;;;;;26.85;15.65;;;2.20;52.90;;;;;;5046399;28;20215;-76
2022/03/13 05:37:01;;;;;;;33.40;16.92;;;2.20;52.90;;;;;;5047191;28;20208;-77
2022/03/13 05:39:28;;;;;;;27.08;15.73;;;2.20;52.90;;;;;;5045844;28;20212;-77
2022/03/13 05:41:55;;;;;;;25.15;15.32;;;2.30;53.00;;;;;;5052879;28;20210;-77
2022/03/13 05:44:23;;;;;;;24.65;14.30;;;2.30;53.00;;;;;;5052926;28;20613;-76
2022/03/13 05:46:51;;;;;;;27.15;15.05;;;2.30;53.00;;;;;;5044075;28;20324;-77
2022/03/13 05:49:18;;;;;;;22.85;14.75;;;2.20;52.90;;;;;;5048311;28;20216;-77
2022/03/13 05:51:46;;;;;;;20.20;13.23;;;2.20;52.90;;;;;;5045437;28;20211;-79
2022/03/13 05:54:13;;;;;;;22.10;13.98;;;2.20;52.90;;;;;;5040570;28;20207;-77
2022/03/13 05:56:41;;;;;;;23.50;14.70;;;2.30;53.00;;;;;;5039037;28;20285;-78
2022/03/13 05:59:09;;;;;;;18.58;13.50;;;2.20;53.30;;;;;;5039875;28;20221;-77
2022/03/13 06:01:37;;;;;;;24.50;15.73;;;2.30;53.00;;;;;;5047065;28;20216;-78
2022/03/13 06:04:08;;;;;;;25.52;15.20;;;2.30;53.00;;;;;;5057876;28;20214;-78
2022/03/13 06:06:35;;;;;;;24.27;15.45;;;2.30;53.00;;;;;;5057296;28;20266;-77
2022/03/13 06:09:01;;;;;;;26.52;14.85;;;2.40;53.40;;;;;;5058846;28;20196;-76
2022/03/13 06:11:28;;;;;;;27.90;14.88;;;2.50;53.20;;;;;;5057450;28;20729;-76
2022/03/13 06:13:55;;;;;;;22.60;15.23;;;2.60;53.20;;;;;;5050212;28;20211;-79
2022/03/13 06:16:24;;;;;;;25.08;15.35;;;2.60;53.20;;;;;;5047146;28;20246;-78
2022/03/13 06:18:51;;;;;;;19.90;13.70;;;2.60;53.20;;;;;;5044737;28;20246;-77
2022/03/13 06:21:19;;;;;;;22.38;14.65;;;2.60;53.20;;;;;;5042065;28;20668;-76
2022/03/13 06:23:46;;;;;;;26.15;14.90;;;2.70;53.30;;;;;;5039859;28;20211;-78
2022/03/13 06:26:13;;;;;;;24.25;14.27;;;2.70;53.30;;;;;;5041087;28;20223;-76
2022/03/13 06:28:40;;;;;;;19.48;13.13;;;2.80;53.40;;;;;;5044117;28;20225;-78
2022/03/13 06:31:07;;;;;;;21.35;13.48;;;2.80;53.40;;;;;;5049717;28;20199;-77
2022/03/13 06:33:34;;;;;;;21.90;13.65;;;2.90;53.50;;;;;;5049963;28;20268;-77
2022/03/13 06:36:01;;;;;;;21.95;13.85;;;2.90;53.40;;;;;;5049539;28;20236;-77
2022/03/13 06:38:29;;;;;;;21.20;13.40;;;3.00;52.70;;;;;;5042167;28;20205;-78
2022/03/13 06:40:56;;;;;;;24.55;15.20;;;3.10;52.30;;;;;;5040644;28;20218;-77
2022/03/13 06:43:23;;;;;;;25.75;13.35;;;3.10;51.80;;;;;;5042756;28;20278;-77
2022/03/13 06:45:50;;;;;;;22.40;15.05;;;3.20;51.40;;;;;;5044298;28;20239;-79
2022/03/13 06:48:21;;;;;;;19.23;13.30;;;3.20;50.90;;;;;;5040338;28;20274;-77
2022/03/13 06:50:47;;;;;;;22.92;14.25;;;3.20;51.30;;;;;;5040770;28;20197;-77
2022/03/13 06:53:15;;;;;;;21.48;14.63;;;3.30;51.30;;;;;;5041459;28;20201;-78
2022/03/13 06:55:43;;;;;;;27.13;14.27;;;3.40;51.00;;;;;;5040728;28;20274;-79
2022/03/13 06:58:10;;;;;;;24.48;13.93;;;3.60;50.60;;;;;;5041398;28;20268;-79
2022/03/13 07:00:37;;;;;;;20.02;13.77;;;3.70;50.10;;;;;;5041095;28;20927;-77
2022/03/13 07:03:04;;;;;;;25.70;15.63;;;3.80;49.60;;;;;;5041130;28;20236;-77
2022/03/13 07:05:31;;;;;;;24.10;16.35;;;3.90;48.80;;;;;;5053237;28;20225;-76
2022/03/13 07:07:58;;;;;;;23.35;16.17;;;4.00;48.50;;;;;;5048961;28;20233;-78
2022/03/13 07:10:25;;;;;;;22.75;15.70;;;4.10;47.90;;;;;;5047910;28;20213;-77
2022/03/13 07:12:58;;;;;;;27.65;15.60;;;4.20;47.60;;;;;;5052758;28;20321;-78
2022/03/13 07:15:27;;;;;;;27.08;16.15;;;4.00;47.20;;;;;;5047593;28;20252;-76
2022/03/13 07:17:54;;;;;;;26.98;17.67;;;4.00;47.30;;;;;;5042299;28;20258;-77
2022/03/13 07:20:21;;;;;;;24.02;16.17;;;4.00;47.20;;;;;;5042840;28;20700;-76
2022/03/13 07:22:48;;;;;;;26.42;16.70;;;4.00;47.20;;;;;;5042995;28;20208;-78
2022/03/13 07:25:16;;;;;;;24.60;16.02;;;4.20;46.50;;;;;;5043862;28;20221;-79
2022/03/13 07:27:44;;;;;;;28.67;15.93;;;4.10;46.70;;;;;;5050475;28;20287;-79
2022/03/13 07:30:14;;;;;;;24.50;16.92;;;4.20;46.60;;;;;;5055386;28;20205;-78
2022/03/13 07:32:41;;;;;;;24.10;16.92;;;4.40;45.40;;;;;;5053112;28;20231;-77
2022/03/13 07:35:09;;;;;;;24.33;16.55;;;4.50;45.50;;;;;;5047339;28;20249;-77
2022/03/13 07:37:36;;;;;;;25.30;17.35;;;4.60;45.50;;;;;;5041162;28;20219;-76
2022/03/13 07:40:03;;;;;;;22.88;15.75;;;4.80;44.10;;;;;;5051647;28;20192;-76
2022/03/13 07:42:30;;;;;;;23.13;16.48;;;5.00;43.90;;;;;;5055926;28;20240;-77
2022/03/13 07:44:57;;;;;;;25.17;17.10;;;5.20;42.60;;;;;;5049839;28;20292;-77
2022/03/13 07:47:26;;;;;;;29.10;16.83;;;5.10;43.00;;;;;;5051047;28;20232;-78
2022/03/13 07:49:53;;;;;;;32.22;16.67;;;5.30;42.40;;;;;;5050062;28;20203;-78
2022/03/13 07:52:20;;;;;;;21.48;15.23;;;5.40;42.10;;;;;;5045315;28;20213;-77
2022/03/13 07:57:27;;;;;;;27.83;15.68;;;5.60;40.80;;;;;;5053997;28;20218;-77
2022/03/13 07:59:54;;;;;;;20.65;15.75;;;5.70;40.90;;;;;;5056977;28;20201;-76
2022/03/13 08:02:22;;;;;;;29.17;17.20;;;5.90;40.70;;;;;;5062947;28;20222;-75
2022/03/13 08:04:50;;;;;;;26.35;17.17;;;6.20;39.80;;;;;;5064542;28;20232;-76
2022/03/13 08:07:17;;;;;;;23.85;17.00;;;6.50;39.00;;;;;;5047230;28;20222;-76
2022/03/13 08:09:44;;;;;;;27.40;17.38;;;6.30;39.10;;;;;;5046341;28;20229;-77
2022/03/13 08:12:11;;;;;;;24.65;16.75;;;6.50;38.00;;;;;;5046496;28;20195;-75
2022/03/13 08:14:38;;;;;;;23.40;15.95;;;6.40;38.30;;;;;;5047770;28;20234;-77
2022/03/13 08:17:05;;;;;;;25.25;16.52;;;6.60;38.00;;;;;;5050220;28;20291;-76
2022/03/13 08:19:32;;;;;;;24.40;17.00;;;7.00;37.70;;;;;;5038812;28;20305;-77
2022/03/13 08:22:00;;;;;;;21.77;15.77;;;7.20;35.80;;;;;;5042819;28;20254;-77
2022/03/13 08:24:28;;;;;;;26.00;17.58;;;7.40;34.90;;;;;;5046122;28;20215;-75
2022/03/13 08:26:55;;;;;;;25.75;17.77;;;7.10;35.20;;;;;;5051114;28;20246;-76
2022/03/13 08:29:22;;;;;;;23.40;16.52;;;6.90;35.70;;;;;;5043441;28;20214;-77
2022/03/13 08:31:49;;;;;;;24.10;17.05;;;6.80;36.30;;;;;;5035448;28;20210;-76
2022/03/13 08:34:16;;;;;;;23.58;16.58;;;6.90;35.90;;;;;;5035268;28;20237;-76
2022/03/13 08:36:46;;;;;;;28.35;16.50;;;7.10;35.40;;;;;;5036049;28;20241;-79
2022/03/13 08:39:15;;;;;;;23.95;15.55;;;7.30;35.10;;;;;;5016593;28;20202;-76
2022/03/13 08:41:42;;;;;;;36.33;17.13;;;7.50;34.70;;;;;;5015224;28;20313;-77
2022/03/13 08:44:09;;;;;;;23.73;15.75;;;7.80;33.60;;;;;;5034010;28;20280;-77
2022/03/13 08:46:38;;;;;;;24.13;16.27;;;8.00;34.10;;;;;;5035592;28;20294;-77
2022/03/13 08:49:07;;;;;;;25.15;16.67;;;8.20;32.60;;;;;;5035097;28;20233;-77
2022/03/13 08:51:34;;;;;;;24.17;16.60;;;8.30;32.30;;;;;;5033724;28;20219;-78
2022/03/13 08:54:00;;;;;;;24.60;16.88;;;8.40;32.40;;;;;;5035506;28;20290;-76
2022/03/13 08:56:29;;;;;;;27.75;17.83;;;8.10;33.00;;;;;;5035328;28;20330;-77
2022/03/13 08:58:56;;;;;;;27.33;16.95;;;8.20;33.20;;;;;;5034863;28;20245;-78
2022/03/13 09:01:25;;;;;;;21.98;15.85;;;8.50;32.40;;;;;;5034429;28;20231;-77
2022/03/13 09:03:52;;;;;;;26.58;16.95;;;8.80;31.60;;;;;;5036921;28;20535;-78
2022/03/13 09:06:18;;;;;;;27.75;17.52;;;9.00;30.70;;;;;;5035662;28;20749;-77
2022/03/13 09:08:45;;;;;;;26.73;17.40;;;9.00;31.20;;;;;;5042653;28;20237;-77
2022/03/13 09:11:13;;;;;;;27.42;16.88;;;8.90;31.00;;;;;;5050697;28;20207;-76
2022/03/13 09:13:41;;;;;;;25.67;17.88;;;9.00;30.90;;;;;;5044805;28;20227;-79
2022/03/13 09:16:08;;;;;;;26.85;18.90;;;9.00;30.80;;;;;;5038905;28;20242;-77
2022/03/13 09:18:35;;;;;;;24.40;16.65;;;9.10;30.80;;;;;;5052388;28;20231;-77
2022/03/13 09:21:02;;;;;;;24.10;17.35;;;9.50;30.00;;;;;;5053868;28;20742;-79
2022/03/13 09:23:30;;;;;;;26.52;18.15;;;9.60;30.10;;;;;;5056910;28;20238;-77
2022/03/13 09:26:00;;;;;;;27.52;17.55;;;9.80;30.30;;;;;;5057355;28;20231;-79
2022/03/13 09:28:26;;;;;;;25.27;16.92;;;9.90;29.90;;;;;;5051067;28;20727;-79
2022/03/13 09:30:55;;;;;;;27.23;18.17;;;9.90;29.80;;;;;;5045251;28;20203;-79
2022/03/13 09:33:22;;;;;;;30.98;19.05;;;10.10;28.60;;;;;;5043666;28;20743;-77
2022/03/13 09:35:51;;;;;;;28.52;18.30;;;10.40;27.90;;;;;;5037068;28;20225;-78
2022/03/13 09:38:18;;;;;;;22.33;16.33;;;10.50;27.70;;;;;;5023923;28;20624;-77
2022/03/13 09:40:45;;;;;;;24.55;17.63;;;10.70;27.30;;;;;;5038843;28;20207;-80
2022/03/13 09:43:11;;;;;;;27.60;18.02;;;10.70;27.00;;;;;;5039074;28;20271;-77
2022/03/13 09:45:38;;;;;;;26.80;17.90;;;10.90;26.90;;;;;;5026504;28;20231;-78
2022/03/13 09:48:09;;;;;;;25.13;18.15;;;10.40;27.30;;;;;;5037566;28;20249;-77
2022/03/13 09:50:39;;;;;;;22.90;16.85;;;10.40;27.50;;;;;;5029174;28;20211;-77
2022/03/13 09:53:06;;;;;;;32.25;18.95;;;10.70;27.10;;;;;;5039613;28;20716;-77
2022/03/13 09:55:33;;;;;;;26.05;17.40;;;11.10;26.60;;;;;;5037717;28;20262;-76
2022/03/13 09:58:00;;;;;;;27.25;17.98;;;11.40;26.10;;;;;;5038379;28;20203;-77
2022/03/13 10:00:26;;;;;;;23.58;17.75;;;11.50;25.90;;;;;;5035820;28;20888;-80
2022/03/13 10:02:54;;;;;;;25.33;18.02;;;11.20;26.40;;;;;;5036156;28;20207;-76
2022/03/13 10:05:24;;;;;;;26.83;18.48;;;11.40;26.30;;;;;;5046017;28;20223;-76
2022/03/13 10:07:56;;;;;;;25.95;16.67;;;11.10;26.50;;;;;;5049075;28;20254;-75
2022/03/13 10:10:24;;;;;;;25.13;18.35;;;11.20;26.20;;;;;;5040776;28;20218;-78
2022/03/13 10:12:51;;;;;;;26.27;18.65;;;11.60;25.90;;;;;;5034181;28;20207;-74
2022/03/13 10:15:18;;;;;;;26.95;18.05;;;11.50;25.90;;;;;;5035472;28;20238;-76
2022/03/13 10:17:45;;;;;;;22.65;16.90;;;11.30;26.20;;;;;;5036200;28;20612;-75
2022/03/13 10:20:14;;;;;;;26.30;17.95;;;11.50;26.30;;;;;;5036386;28;20227;-73
2022/03/13 10:22:44;;;;;;;27.45;18.30;;;12.10;25.20;;;;;;5040828;28;20226;-73
2022/03/13 10:25:14;;;;;;;25.37;18.63;;;12.30;24.70;;;;;;5045948;28;20228;-75
2022/03/13 10:27:41;;;;;;;24.65;17.38;;;12.50;24.30;;;;;;5046760;28;20457;-73
2022/03/13 10:30:09;;;;;;;29.60;18.80;;;12.60;24.10;;;;;;5047555;28;20213;-73
2022/03/13 10:32:37;;;;;;;27.65;18.85;;;12.40;24.50;;;;;;5047774;28;20438;-75
2022/03/13 10:35:05;;;;;;;24.53;19.23;;;12.60;23.90;;;;;;5038410;28;20216;-75
2022/03/13 10:37:39;;;;;;;24.93;19.33;;;12.60;23.60;;;;;;5038261;28;20463;-76
2022/03/13 10:40:13;;;;;;;24.17;17.65;;;12.80;23.70;;;;;;5036702;28;20457;-73
2022/03/13 10:42:43;;;;;;;25.98;18.83;;;12.90;23.80;;;;;;5036588;28;20210;-73
2022/03/13 10:45:11;;;;;;;29.85;20.33;;;12.90;23.80;;;;;;5037348;28;20230;-73
2022/03/13 10:47:38;;;;;;;26.07;18.90;;;13.10;23.90;;;;;;5036888;28;20274;-73
2022/03/13 10:50:07;;;;;;;27.20;18.27;;;13.30;24.10;;;;;;5035934;28;20464;-75
2022/03/13 10:52:41;;;;;;;27.50;18.53;;;13.30;24.10;;;;;;5035524;28;20318;-74
2022/03/13 10:55:21;;;;;;;27.10;20.07;;;12.80;23.70;;;;;;5035958;28;21024;-74
2022/03/13 10:57:49;;;;;;;26.43;18.73;;;12.90;23.80;;;;;;5036254;28;20485;-74
2022/03/13 11:00:17;;;;;;;27.50;19.37;;;13.40;24.10;;;;;;5034836;28;20461;-74
2022/03/13 11:02:45;;;;;;;25.00;18.47;;;13.60;23.70;;;;;;5033868;28;20420;-74
2022/03/13 11:05:12;;;;;;;33.00;19.97;;;13.80;23.00;;;;;;5035463;28;20543;-74
2022/03/13 11:07:39;;;;;;;24.60;17.77;;;14.00;22.50;;;;;;5037483;28;20516;-73
2022/03/13 11:10:08;;;;;;;24.87;19.27;;;13.50;23.40;;;;;;5036606;28;20497;-75
2022/03/13 11:12:39;;;;;;;27.70;19.93;;;13.70;23.30;;;;;;5040758;28;20446;-75
2022/03/13 11:15:11;;;;;;;29.20;18.90;;;13.90;22.50;;;;;;5042997;28;20500;-73
2022/03/13 11:17:39;;;;;;;27.07;18.10;;;13.80;23.00;;;;;;5034592;28;20466;-75
2022/03/13 11:20:09;;;;;;;25.77;19.37;;;13.70;22.80;;;;;;5041708;28;20877;-74
2022/03/13 11:22:36;;;;;;;25.00;17.53;;;13.50;23.40;;;;;;5045334;28;20434;-75
2022/03/13 11:25:06;;;;;;;27.50;18.87;;;13.80;22.80;;;;;;5043816;28;20556;-74
2022/03/13 11:27:37;;;;;;;23.80;18.27;;;14.20;22.00;;;;;;5042142;28;20437;-74
2022/03/13 11:30:06;;;;;;;27.23;19.03;;;14.30;22.70;;;;;;5045412;28;20461;-73
2022/03/13 11:32:40;;;;;;;30.03;20.13;;;14.50;21.80;;;;;;5039499;28;20465;-74
2022/03/13 11:35:25;;;;;;;27.83;18.57;;;14.30;22.80;;;;;;5043112;28;20472;-76
2022/03/13 11:37:54;;;;;;;23.77;18.37;;;14.20;22.30;;;;;;5049409;28;20454;-76
2022/03/13 11:40:31;;;;;;;26.40;17.63;;;14.50;22.00;;;;;;5048851;28;20525;-74
2022/03/13 11:43:08;;;;;;;28.00;19.83;;;14.70;21.70;;;;;;5052419;28;20421;-73
2022/03/13 11:45:38;;;;;;;27.83;19.33;;;15.00;21.20;;;;;;5049714;28;20489;-75
2022/03/13 11:48:41;;;;;;;24.70;18.63;;;14.70;22.00;;;;;;5035816;28;20457;-76
2022/03/13 11:51:08;;;;;;;24.10;18.70;;;14.90;21.50;;;;;;5032020;28;20556;-74
2022/03/13 11:53:49;;;;;;;24.30;19.27;;;15.00;21.60;;;;;;5036171;28;20450;-75
2022/03/13 11:56:27;;;;;;;25.50;18.90;;;15.10;21.40;;;;;;5036301;28;20531;-75
2022/03/13 11:59:01;;;;;;;25.23;19.10;;;15.20;21.10;;;;;;5040380;28;20949;-76
2022/03/13 12:01:36;;;;;;;28.20;19.10;;;15.40;21.00;;;;;;5038264;28;20820;-75
2022/03/13 12:04:22;;;;;;;22.83;18.40;;;15.80;20.60;;;;;;5037878;28;20489;-76
2022/03/13 12:06:52;;;;;;;27.03;17.90;;;15.70;21.00;;;;;;5035466;28;20564;-74
2022/03/13 12:09:21;;;;;;;25.33;19.10;;;15.90;20.70;;;;;;5035079;28;20504;-77
2022/03/13 12:11:50;;;;;;;29.23;20.47;;;15.70;20.80;;;;;;5034509;28;20466;-74
2022/03/13 12:14:20;;;;;;;28.63;18.57;;;15.70;20.60;;;;;;5035274;28;20432;-75
2022/03/13 12:17:04;;;;;;;25.27;18.70;;;15.80;20.70;;;;;;5034587;28;20474;-75
2022/03/13 12:19:39;;;;;;;23.83;17.53;;;15.90;20.90;;;;;;5044482;28;20442;-76
2022/03/13 12:22:06;;;;;;;26.67;18.00;;;15.90;21.20;;;;;;5046993;28;20425;-75
2022/03/13 12:24:34;;;;;;;35.33;18.57;;;15.80;21.00;;;;;;5044646;28;20970;-77
2022/03/13 12:27:03;;;;;;;24.53;17.33;;;15.80;20.50;;;;;;5044610;28;20486;-75
2022/03/13 12:29:32;;;;;;;27.20;18.93;;;16.00;19.90;;;;;;5043935;28;20490;-75
2022/03/13 12:32:01;;;;;;;26.90;19.17;;;16.10;20.00;;;;;;5042943;28;20473;-76
2022/03/13 12:34:30;;;;;;;27.63;19.07;;;16.30;19.50;;;;;;5036268;28;20481;-75
2022/03/13 12:37:02;;;;;;;27.10;20.13;;;16.40;19.40;;;;;;5025561;28;20540;-75
2022/03/13 12:39:29;;;;;;;29.60;20.10;;;16.70;19.10;;;;;;5026926;28;20507;-78
2022/03/13 12:41:57;;;;;;;24.70;18.70;;;16.80;18.30;;;;;;5034312;28;20931;-75